Time;durP1;ratioP1;P1;durP2;ratioP2;P2;SDS_P1;SDS_P2;PMS_P1;PMS_P2;Temp;Humidity;BMP_temperature;BMP_pressure;BME280_temperature;BME280_humidity;BME280_pressure;Samples;Min_cycle;Max_cycle;Signal;HPM_P1;HPM_P2
2023/12/08 00:02:05;;;;;;;109.90;19.10;;;;;;;;;;6305171;22;20181;-77
2023/12/08 00:04:32;;;;;;;156.50;21.03;;;;;;;;;;6305042;22;20174;-79
2023/12/08 00:06:59;;;;;;;99.23;19.50;;;;;;;;;;6304376;22;20592;-78
2023/12/08 00:09:26;;;;;;;79.87;19.10;;;;;;;;;;6304733;22;20253;-77
2023/12/08 00:11:54;;;;;;;120.97;19.93;;;;;;;;;;6304804;22;20229;-78
2023/12/08 00:14:22;;;;;;;95.80;19.30;;;;;;;;;;6304824;22;20194;-78
2023/12/08 00:16:49;;;;;;;109.53;20.87;;;;;;;;;;6305511;22;20248;-79
2023/12/08 00:19:16;;;;;;;124.77;21.33;;;;;;;;;;6304822;22;20193;-78
2023/12/08 00:21:44;;;;;;;111.07;20.80;;;;;;;;;;6305601;22;20245;-78
2023/12/08 00:24:11;;;;;;;110.80;20.87;;;;;;;;;;6307150;22;20189;-78
2023/12/08 00:26:38;;;;;;;108.83;20.17;;;;;;;;;;6306941;22;20173;-78
2023/12/08 00:29:05;;;;;;;104.13;20.43;;;;;;;;;;6306634;22;20197;-78
2023/12/08 00:31:34;;;;;;;133.83;21.90;;;;;;;;;;6306680;22;20594;-78
2023/12/08 00:34:01;;;;;;;132.93;23.23;;;;;;;;;;6306331;22;20174;-78
2023/12/08 00:36:28;;;;;;;124.17;22.00;;;;;;;;;;6306256;22;20253;-76
2023/12/08 00:38:56;;;;;;;126.70;22.63;;;;;;;;;;6306201;22;20209;-78
2023/12/08 00:41:24;;;;;;;125.57;21.63;;;;;;;;;;6306751;22;20201;-78
2023/12/08 00:43:51;;;;;;;122.67;21.67;;;;;;;;;;6307039;22;20166;-77
2023/12/08 00:46:18;;;;;;;127.03;21.10;;;;;;;;;;6306638;22;20196;-78
2023/12/08 00:48:47;;;;;;;135.90;21.20;;;;;;;;;;6306434;22;20197;-78
2023/12/08 00:51:14;;;;;;;102.27;18.90;;;;;;;;;;6306361;22;20537;-78
2023/12/08 00:53:41;;;;;;;132.90;19.77;;;;;;;;;;6305805;22;20170;-78
2023/12/08 00:56:09;;;;;;;142.97;19.10;;;;;;;;;;6307149;22;20190;-78
2023/12/08 00:58:36;;;;;;;126.93;18.33;;;;;;;;;;6306469;22;20212;-78
2023/12/08 01:01:03;;;;;;;119.57;16.70;;;;;;;;;;6305842;22;20277;-78
2023/12/08 01:03:30;;;;;;;145.97;17.67;;;;;;;;;;6305903;22;20258;-79
2023/12/08 01:05:59;;;;;;;143.17;17.37;;;;;;;;;;6305952;22;20173;-78
2023/12/08 01:08:26;;;;;;;101.53;15.27;;;;;;;;;;6306341;22;20193;-78
2023/12/08 01:10:53;;;;;;;107.80;15.07;;;;;;;;;;6306328;22;20197;-78
2023/12/08 01:13:20;;;;;;;105.37;14.23;;;;;;;;;;6306278;22;20710;-79
2023/12/08 01:15:48;;;;;;;120.57;15.57;;;;;;;;;;6306342;22;20479;-78
2023/12/08 01:18:15;;;;;;;94.63;15.30;;;;;;;;;;6305816;22;20174;-78
2023/12/08 01:20:42;;;;;;;100.33;14.57;;;;;;;;;;6306084;22;20512;-78
2023/12/08 01:23:11;;;;;;;120.23;14.77;;;;;;;;;;6306440;22;20252;-78
2023/12/08 01:25:38;;;;;;;125.83;15.20;;;;;;;;;;6306443;22;20198;-77
2023/12/08 01:28:05;;;;;;;115.23;13.97;;;;;;;;;;6306293;22;20212;-78
2023/12/08 01:30:32;;;;;;;136.43;14.43;;;;;;;;;;6305997;22;20575;-77
2023/12/08 01:33:00;;;;;;;216.67;16.70;;;;;;;;;;6304686;22;20646;-77
2023/12/08 01:35:27;;;;;;;203.47;15.47;;;;;;;;;;6305983;22;20260;-78
2023/12/08 01:37:54;;;;;;;205.10;17.23;;;;;;;;;;6306402;22;20252;-78
2023/12/08 01:40:23;;;;;;;193.47;15.97;;;;;;;;;;6305882;22;20248;-78
2023/12/08 01:42:50;;;;;;;145.93;15.60;;;;;;;;;;6306199;22;20257;-78
2023/12/08 01:45:17;;;;;;;156.10;15.43;;;;;;;;;;6306204;22;20273;-78
2023/12/08 01:47:44;;;;;;;155.27;16.50;;;;;;;;;;6305505;22;20208;-79
2023/12/08 01:50:12;;;;;;;124.80;15.30;;;;;;;;;;6306316;22;20170;-77
2023/12/08 01:52:40;;;;;;;177.40;16.60;;;;;;;;;;6305824;22;20256;-78
2023/12/08 01:55:08;;;;;;;150.53;14.53;;;;;;;;;;6305537;22;20170;-78
2023/12/08 01:57:36;;;;;;;134.47;14.33;;;;;;;;;;6306055;22;20194;-79
2023/12/08 02:00:05;;;;;;;131.97;13.47;;;;;;;;;;6305858;22;20193;-78
2023/12/08 02:02:33;;;;;;;130.73;13.73;;;;;;;;;;6305905;22;20170;-78
2023/12/08 02:05:02;;;;;;;137.67;13.93;;;;;;;;;;6305420;22;20277;-78
2023/12/08 02:07:29;;;;;;;155.20;12.70;;;;;;;;;;6305906;22;20194;-77
2023/12/08 02:09:56;;;;;;;136.07;13.03;;;;;;;;;;6305426;22;20197;-78
2023/12/08 02:12:24;;;;;;;118.43;12.77;;;;;;;;;;6305946;22;20239;-78
2023/12/08 02:14:53;;;;;;;142.87;12.97;;;;;;;;;;6305755;22;20201;-78
2023/12/08 02:17:21;;;;;;;159.17;13.33;;;;;;;;;;6305640;22;20208;-78
2023/12/08 02:19:49;;;;;;;166.53;14.13;;;;;;;;;;6305508;22;20202;-79
2023/12/08 02:22:17;;;;;;;132.63;13.40;;;;;;;;;;6305561;22;20248;-78
2023/12/08 02:24:45;;;;;;;121.57;12.60;;;;;;;;;;6306205;22;20245;-78
2023/12/08 02:27:13;;;;;;;167.17;14.10;;;;;;;;;;6303819;22;20169;-78
2023/12/08 02:29:40;;;;;;;116.80;13.37;;;;;;;;;;6305429;22;20197;-78
2023/12/08 02:32:09;;;;;;;181.27;14.73;;;;;;;;;;6305183;22;20299;-78
2023/12/08 02:34:37;;;;;;;126.67;12.67;;;;;;;;;;6305214;22;20181;-77
2023/12/08 02:37:04;;;;;;;104.17;12.47;;;;;;;;;;6305270;22;20201;-77
2023/12/08 02:39:32;;;;;;;129.50;13.27;;;;;;;;;;6305585;22;20201;-78
2023/12/08 02:42:02;;;;;;;115.03;12.43;;;;;;;;;;6305909;22;20173;-76
2023/12/08 02:44:29;;;;;;;98.30;12.67;;;;;;;;;;6304880;22;20273;-77
2023/12/08 02:46:56;;;;;;;110.90;11.67;;;;;;;;;;6304690;22;20635;-78
2023/12/08 02:49:24;;;;;;;78.73;10.40;;;;;;;;;;6305529;22;20197;-77
2023/12/08 02:51:51;;;;;;;79.53;9.20;;;;;;;;;;6305113;22;20252;-78
2023/12/08 02:54:18;;;;;;;68.73;9.30;;;;;;;;;;6305172;22;20687;-78
2023/12/08 02:56:45;;;;;;;87.50;9.50;;;;;;;;;;6305727;22;20201;-77
2023/12/08 02:59:13;;;;;;;63.90;8.77;;;;;;;;;;6305126;22;20228;-77
2023/12/08 03:01:41;;;;;;;96.07;9.30;;;;;;;;;;6304037;22;20257;-78
2023/12/08 03:04:08;;;;;;;85.03;8.90;;;;;;;;;;6305363;22;20170;-78
2023/12/08 03:06:35;;;;;;;92.43;10.47;;;;;;;;;;6305399;22;20201;-77
2023/12/08 03:09:03;;;;;;;65.13;9.73;;;;;;;;;;6305110;22;20193;-78
2023/12/08 03:11:30;;;;;;;76.03;8.97;;;;;;;;;;6305066;22;20192;-78
2023/12/08 03:13:58;;;;;;;64.57;9.07;;;;;;;;;;6304798;22;20285;-78
2023/12/08 03:16:26;;;;;;;79.70;9.07;;;;;;;;;;6304704;22;20197;-78
2023/12/08 03:18:53;;;;;;;68.50;8.47;;;;;;;;;;6305159;22;20170;-78
2023/12/08 03:21:23;;;;;;;88.33;8.97;;;;;;;;;;6305029;22;20189;-78
2023/12/08 03:23:51;;;;;;;51.67;8.33;;;;;;;;;;6305135;22;20194;-77
2023/12/08 03:26:19;;;;;;;52.57;8.63;;;;;;;;;;6305245;22;20245;-78
2023/12/08 03:28:46;;;;;;;58.53;8.97;;;;;;;;;;6304264;22;20197;-77
2023/12/08 03:31:21;;;;;;;43.83;8.30;;;;;;;;;;6304971;22;20279;-78
2023/12/08 03:33:50;;;;;;;39.33;8.27;;;;;;;;;;6305125;22;20584;-77
2023/12/08 03:36:17;;;;;;;47.03;9.60;;;;;;;;;;6305250;22;20221;-78
2023/12/08 03:38:44;;;;;;;53.37;9.20;;;;;;;;;;6304801;22;20815;-78
2023/12/08 03:41:12;;;;;;;49.73;9.17;;;;;;;;;;6305463;22;20193;-77
2023/12/08 03:43:39;;;;;;;43.33;9.23;;;;;;;;;;6304731;22;20624;-78
2023/12/08 03:46:06;;;;;;;78.17;10.63;;;;;;;;;;6305177;22;20222;-77
2023/12/08 03:48:33;;;;;;;58.53;10.07;;;;;;;;;;6304892;22;20253;-78
2023/12/08 03:51:02;;;;;;;60.67;10.77;;;;;;;;;;6305146;22;20253;-78
2023/12/08 03:53:30;;;;;;;85.27;10.23;;;;;;;;;;6304772;22;20229;-78
2023/12/08 03:55:57;;;;;;;75.47;10.87;;;;;;;;;;6306145;22;20249;-78
2023/12/08 03:58:24;;;;;;;49.67;9.03;;;;;;;;;;6306845;22;20200;-78
2023/12/08 04:00:51;;;;;;;57.53;10.43;;;;;;;;;;6305629;22;20747;-78
2023/12/08 04:03:18;;;;;;;54.13;9.63;;;;;;;;;;6306095;22;20249;-78
2023/12/08 04:05:45;;;;;;;78.80;10.10;;;;;;;;;;6307163;22;20484;-78
2023/12/08 04:08:14;;;;;;;72.27;9.70;;;;;;;;;;6306765;22;20639;-77
2023/12/08 04:10:41;;;;;;;31.43;8.63;;;;;;;;;;6306429;22;20645;-77
2023/12/08 04:13:09;;;;;;;58.70;8.80;;;;;;;;;;6305860;22;20937;-78
2023/12/08 04:15:36;;;;;;;52.43;9.63;;;;;;;;;;6306889;22;20248;-77
2023/12/08 04:18:03;;;;;;;52.97;11.03;;;;;;;;;;6306893;22;20194;-78
2023/12/08 04:20:30;;;;;;;68.10;10.10;;;;;;;;;;6306678;22;20189;-78
2023/12/08 04:22:57;;;;;;;56.17;9.97;;;;;;;;;;6307208;22;20166;-79
2023/12/08 04:25:26;;;;;;;47.37;9.93;;;;;;;;;;6306787;22;20170;-77
2023/12/08 04:27:53;;;;;;;65.93;10.63;;;;;;;;;;6306117;22;20198;-78
2023/12/08 04:30:20;;;;;;;60.37;10.73;;;;;;;;;;6306687;22;20249;-78
2023/12/08 04:32:47;;;;;;;48.70;10.23;;;;;;;;;;6306704;22;20276;-78
2023/12/08 04:35:14;;;;;;;50.10;9.83;;;;;;;;;;6306867;22;20198;-78
2023/12/08 04:37:42;;;;;;;52.73;10.77;;;;;;;;;;6306276;22;20253;-78
2023/12/08 04:40:09;;;;;;;43.60;10.43;;;;;;;;;;6306880;22;20223;-78
2023/12/08 04:42:38;;;;;;;64.07;10.90;;;;;;;;;;6306024;22;20260;-77
2023/12/08 04:45:06;;;;;;;51.40;8.77;;;;;;;;;;6306169;22;20509;-78
2023/12/08 04:47:33;;;;;;;58.93;9.27;;;;;;;;;;6305288;22;20174;-78
2023/12/08 04:50:00;;;;;;;49.10;8.77;;;;;;;;;;6307173;22;20197;-77
2023/12/08 04:52:27;;;;;;;74.43;9.33;;;;;;;;;;6306516;22;20209;-77
2023/12/08 04:54:54;;;;;;;74.07;8.70;;;;;;;;;;6306263;22;20206;-79
2023/12/08 04:57:22;;;;;;;51.23;8.33;;;;;;;;;;6306175;22;20252;-78
2023/12/08 04:59:50;;;;;;;36.40;7.87;;;;;;;;;;6306226;22;20272;-78
2023/12/08 05:02:17;;;;;;;71.37;8.83;;;;;;;;;;6306682;22;20172;-78
2023/12/08 05:04:45;;;;;;;61.47;8.60;;;;;;;;;;6306686;22;20257;-78
2023/12/08 05:07:12;;;;;;;59.67;8.30;;;;;;;;;;6305977;22;20201;-78
2023/12/08 05:09:39;;;;;;;73.67;8.33;;;;;;;;;;6306030;22;20205;-77
2023/12/08 05:12:06;;;;;;;79.77;7.73;;;;;;;;;;6306030;22;20255;-78
2023/12/08 05:14:34;;;;;;;60.73;7.17;;;;;;;;;;6306020;22;20228;-78
2023/12/08 05:17:02;;;;;;;64.17;7.47;;;;;;;;;;6306524;22;20253;-77
2023/12/08 05:19:29;;;;;;;80.87;8.43;;;;;;;;;;6306486;22;20177;-78
2023/12/08 05:21:56;;;;;;;105.47;9.13;;;;;;;;;;6306289;22;20253;-78
2023/12/08 05:24:24;;;;;;;47.67;7.40;;;;;;;;;;6306557;22;20204;-77
2023/12/08 05:26:51;;;;;;;61.73;8.90;;;;;;;;;;6306427;22;20198;-78
2023/12/08 05:29:18;;;;;;;91.10;8.13;;;;;;;;;;6306073;22;20280;-79
2023/12/08 05:31:45;;;;;;;55.50;6.50;;;;;;;;;;6306812;22;20200;-78
2023/12/08 05:34:14;;;;;;;46.00;6.83;;;;;;;;;;6306204;22;20225;-77
2023/12/08 05:36:41;;;;;;;47.00;6.47;;;;;;;;;;6306430;22;20170;-77
2023/12/08 05:39:09;;;;;;;42.17;6.23;;;;;;;;;;6305746;22;20189;-78
2023/12/08 05:41:37;;;;;;;39.77;6.00;;;;;;;;;;6306369;22;20173;-78
2023/12/08 05:44:05;;;;;;;53.13;8.10;;;;;;;;;;6305748;22;20518;-78
2023/12/08 05:46:32;;;;;;;42.03;7.43;;;;;;;;;;6306375;22;20197;-78
2023/12/08 05:48:59;;;;;;;26.07;6.20;;;;;;;;;;6306471;22;20190;-78
2023/12/08 05:51:28;;;;;;;14.53;4.73;;;;;;;;;;6306314;22;20193;-78
2023/12/08 05:53:55;;;;;;;14.67;5.00;;;;;;;;;;6305558;22;20289;-77
2023/12/08 05:56:22;;;;;;;16.57;4.50;;;;;;;;;;6306134;22;20201;-77
2023/12/08 05:58:49;;;;;;;15.30;4.20;;;;;;;;;;6305184;22;20176;-76
2023/12/08 06:01:17;;;;;;;13.53;3.90;;;;;;;;;;6305678;22;20546;-77
2023/12/08 06:03:44;;;;;;;11.90;3.70;;;;;;;;;;6306204;22;20166;-77
2023/12/08 06:06:12;;;;;;;12.17;4.23;;;;;;;;;;6305479;22;20248;-77
2023/12/08 06:08:40;;;;;;;18.20;4.43;;;;;;;;;;6305051;22;20181;-78
2023/12/08 06:11:07;;;;;;;12.47;4.67;;;;;;;;;;6304993;22;20260;-78
2023/12/08 06:13:35;;;;;;;11.23;4.53;;;;;;;;;;6305903;22;20277;-77
2023/12/08 06:16:03;;;;;;;14.80;4.87;;;;;;;;;;6305674;22;20197;-77
2023/12/08 06:18:30;;;;;;;18.23;5.13;;;;;;;;;;6305110;22;20170;-76
2023/12/08 06:20:58;;;;;;;16.47;5.43;;;;;;;;;;6305497;22;20707;-77
2023/12/08 06:23:25;;;;;;;15.70;5.10;;;;;;;;;;6305407;22;20573;-76
2023/12/08 06:25:53;;;;;;;22.67;7.07;;;;;;;;;;6305120;22;20208;-77
2023/12/08 06:28:21;;;;;;;24.17;8.00;;;;;;;;;;6305395;22;20193;-76
2023/12/08 06:30:48;;;;;;;26.13;8.23;;;;;;;;;;6305925;22;20197;-76
2023/12/08 06:33:15;;;;;;;26.27;8.03;;;;;;;;;;6305767;22;20606;-76
2023/12/08 06:35:42;;;;;;;31.70;8.97;;;;;;;;;;6305173;22;20671;-76
2023/12/08 06:38:10;;;;;;;24.53;9.27;;;;;;;;;;6304503;22;20197;-76
2023/12/08 06:40:37;;;;;;;25.43;9.33;;;;;;;;;;6305431;22;20241;-75
2023/12/08 06:43:05;;;;;;;32.30;9.80;;;;;;;;;;6305230;22;20212;-76
2023/12/08 06:45:32;;;;;;;28.97;10.57;;;;;;;;;;6305957;22;20215;-77
2023/12/08 06:48:00;;;;;;;36.67;11.53;;;;;;;;;;6305057;22;20675;-75
2023/12/08 06:50:27;;;;;;;31.87;11.13;;;;;;;;;;6304850;22;20205;-75
2023/12/08 06:52:54;;;;;;;29.57;10.80;;;;;;;;;;6304992;22;20248;-76
2023/12/08 06:55:21;;;;;;;30.60;10.57;;;;;;;;;;6305573;22;20245;-76
2023/12/08 06:57:48;;;;;;;30.63;10.37;;;;;;;;;;6305254;22;20256;-76
2023/12/08 07:00:17;;;;;;;30.53;11.40;;;;;;;;;;6305155;22;20217;-76
2023/12/08 07:02:45;;;;;;;32.43;11.47;;;;;;;;;;6305640;22;20209;-76
2023/12/08 07:05:12;;;;;;;31.40;11.63;;;;;;;;;;6305313;22;20235;-76
2023/12/08 07:07:39;;;;;;;32.03;14.30;;;;;;;;;;6305108;22;20248;-76
2023/12/08 07:10:07;;;;;;;39.37;14.73;;;;;;;;;;6306057;22;20170;-76
2023/12/08 07:12:34;;;;;;;35.60;14.17;;;;;;;;;;6305056;22;20607;-76
2023/12/08 07:15:02;;;;;;;40.33;15.30;;;;;;;;;;6305438;22;20584;-76
2023/12/08 07:17:30;;;;;;;31.20;14.33;;;;;;;;;;6305636;22;20216;-76
2023/12/08 07:19:57;;;;;;;43.53;14.17;;;;;;;;;;6305567;22;20204;-76
2023/12/08 07:22:24;;;;;;;32.30;12.93;;;;;;;;;;6304944;22;20241;-75
2023/12/08 07:24:52;;;;;;;38.53;14.23;;;;;;;;;;6305244;22;20543;-75
2023/12/08 07:27:19;;;;;;;45.33;16.00;;;;;;;;;;6305104;22;20742;-76
2023/12/08 07:29:46;;;;;;;44.80;15.57;;;;;;;;;;6305127;22;20501;-76
2023/12/08 07:32:13;;;;;;;39.87;15.83;;;;;;;;;;6307678;22;20170;-76
2023/12/08 07:34:42;;;;;;;34.90;14.10;;;;;;;;;;6307791;22;20250;-77
2023/12/08 07:37:09;;;;;;;35.43;14.77;;;;;;;;;;6307630;22;20193;-76
2023/12/08 07:39:36;;;;;;;36.93;14.87;;;;;;;;;;6306776;22;20671;-76
2023/12/08 07:42:04;;;;;;;35.43;13.60;;;;;;;;;;6307641;22;20177;-76
2023/12/08 07:44:31;;;;;;;36.93;12.57;;;;;;;;;;6307360;22;20578;-76
2023/12/08 07:46:58;;;;;;;36.93;13.27;;;;;;;;;;6307325;22;20189;-76
2023/12/08 07:49:25;;;;;;;38.20;14.50;;;;;;;;;;6307145;22;20535;-78
2023/12/08 07:51:54;;;;;;;44.80;15.87;;;;;;;;;;6307388;22;20198;-76
2023/12/08 07:54:21;;;;;;;36.70;14.70;;;;;;;;;;6306759;22;20201;-76
2023/12/08 07:56:48;;;;;;;41.83;18.93;;;;;;;;;;6307630;22;20245;-76
2023/12/08 07:59:15;;;;;;;56.40;25.73;;;;;;;;;;6307447;22;20218;-75
2023/12/08 08:01:42;;;;;;;62.97;29.63;;;;;;;;;;6307683;22;20170;-77
2023/12/08 08:04:09;;;;;;;53.67;26.97;;;;;;;;;;6306990;22;20256;-76
2023/12/08 08:06:36;;;;;;;53.10;24.50;;;;;;;;;;6307308;22;20193;-76
2023/12/08 08:09:05;;;;;;;48.13;22.70;;;;;;;;;;6307608;22;20253;-76
2023/12/08 08:11:32;;;;;;;43.33;21.30;;;;;;;;;;6307039;22;20192;-77
2023/12/08 08:13:59;;;;;;;41.83;19.73;;;;;;;;;;6307299;22;20201;-76
2023/12/08 08:16:27;;;;;;;40.10;20.13;;;;;;;;;;6307422;22;20248;-75
2023/12/08 08:18:54;;;;;;;46.37;20.17;;;;;;;;;;6307009;22;20186;-75
2023/12/08 08:21:21;;;;;;;36.87;18.70;;;;;;;;;;6307470;22;20170;-76
2023/12/08 08:23:48;;;;;;;33.10;16.30;;;;;;;;;;6307115;22;20197;-76
2023/12/08 08:26:17;;;;;;;30.73;15.37;;;;;;;;;;6307444;22;20200;-76
2023/12/08 08:28:44;;;;;;;35.43;16.43;;;;;;;;;;6307760;22;20200;-76
2023/12/08 08:31:12;;;;;;;31.03;15.77;;;;;;;;;;6307212;22;20172;-76
2023/12/08 08:33:40;;;;;;;25.00;14.27;;;;;;;;;;6306145;22;20166;-76
2023/12/08 08:36:08;;;;;;;22.90;13.03;;;;;;;;;;6307031;22;20170;-76
2023/12/08 08:38:35;;;;;;;21.17;12.17;;;;;;;;;;6307527;22;20177;-76
2023/12/08 08:41:03;;;;;;;24.97;12.47;;;;;;;;;;6306973;22;20197;-76
2023/12/08 08:43:31;;;;;;;23.23;11.10;;;;;;;;;;6307013;22;20170;-76
2023/12/08 08:45:59;;;;;;;20.37;10.03;;;;;;;;;;6306603;22;20208;-76
2023/12/08 08:48:26;;;;;;;20.83;7.60;;;;;;;;;;6306301;22;20174;-76
2023/12/08 08:50:53;;;;;;;19.98;7.25;;;;;;;;;;6307433;22;20189;-76
2023/12/08 08:53:21;;;;;;;19.33;7.10;;;;;;;;;;6306761;22;20177;-76
2023/12/08 08:55:48;;;;;;;16.23;5.65;;;;;;;;;;6306673;22;20237;-76
2023/12/08 08:58:15;;;;;;;16.83;5.47;;;;;;;;;;6306767;22;20241;-76
2023/12/08 09:00:44;;;;;;;13.85;4.75;;;;;;;;;;6306334;22;20193;-75
2023/12/08 09:03:11;;;;;;;14.95;5.40;;;;;;;;;;6306461;22;20166;-77
2023/12/08 09:05:40;;;;;;;15.55;5.60;;;;;;;;;;6307254;22;20166;-76
2023/12/08 09:08:08;;;;;;;14.50;4.68;;;;;;;;;;6306350;22;20170;-76
2023/12/08 09:10:35;;;;;;;17.50;5.00;;;;;;;;;;6306339;22;20502;-76
2023/12/08 09:13:02;;;;;;;14.25;5.68;;;;;;;;;;6306755;22;20190;-76
2023/12/08 09:15:29;;;;;;;14.60;5.70;;;;;;;;;;6307071;22;20197;-76
2023/12/08 09:17:58;;;;;;;18.10;5.97;;;;;;;;;;6306425;22;20200;-75
2023/12/08 09:20:25;;;;;;;16.73;5.30;;;;;;;;;;6306653;22;20538;-76
2023/12/08 09:22:53;;;;;;;12.85;5.18;;;;;;;;;;6306625;22;20846;-76
2023/12/08 09:25:21;;;;;;;12.77;5.18;;;;;;;;;;6306741;22;20253;-76
2023/12/08 09:27:48;;;;;;;14.18;4.82;;;;;;;;;;6306153;22;20174;-76
2023/12/08 09:30:16;;;;;;;16.70;5.22;;;;;;;;;;6306815;22;20177;-77
2023/12/08 09:32:43;;;;;;;12.50;4.57;;;;;;;;;;6305996;22;20197;-76
2023/12/08 09:35:12;;;;;;;11.55;4.45;;;;;;;;;;6306200;22;20208;-76
2023/12/08 09:37:39;;;;;;;11.45;3.65;;;;;;;;;;6306523;22;20679;-76
2023/12/08 09:40:08;;;;;;;12.18;4.15;;;;;;;;;;6306483;22;20204;-76
2023/12/08 09:42:37;;;;;;;13.65;4.30;;;;;;;;;;6306519;22;20174;-76
2023/12/08 09:45:05;;;;;;;12.82;5.93;;;;;;;;;;6306421;22;20172;-77
2023/12/08 09:47:35;;;;;;;12.93;5.45;;;;;;;;;;6305669;22;20166;-76
2023/12/08 09:50:03;;;;;;;12.73;5.20;;;;;;;;;;6305987;22;20703;-76
2023/12/08 09:52:33;;;;;;;12.57;3.60;;;;;;;;;;6306362;22;20165;-77
2023/12/08 09:55:01;;;;;;;11.95;4.57;;;;;;;;;;6306554;22;20197;-76
2023/12/08 09:57:30;;;;;;;11.98;4.40;;;;;;;;;;6306289;22;20176;-76
2023/12/08 09:59:59;;;;;;;12.25;4.47;;;;;;;;;;6305407;22;20193;-76
2023/12/08 10:02:26;;;;;;;13.27;3.75;;;;;;;;;;6306672;22;20540;-76
2023/12/08 10:04:53;;;;;;;9.15;3.50;;;;;;;;;;6305693;22;20197;-76
2023/12/08 10:07:22;;;;;;;10.40;3.38;;;;;;;;;;6306286;22;20227;-77
2023/12/08 10:09:50;;;;;;;10.20;3.53;;;;;;;;;;6306291;22;20166;-76
2023/12/08 10:12:17;;;;;;;11.70;3.63;;;;;;;;;;6305771;22;20727;-76
2023/12/08 10:14:55;;;;;;;8.90;2.95;;;;;;;;;;6305450;22;20225;-77
2023/12/08 10:17:22;;;;;;;13.65;3.90;;;;;;;;;;6306080;22;20272;-76
2023/12/08 10:19:51;;;;;;;14.23;4.00;;;;;;;;;;6306524;22;20245;-76
2023/12/08 10:22:18;;;;;;;11.73;3.20;;;;;;;;;;6306209;22;20172;-76
2023/12/08 10:24:46;;;;;;;11.73;4.40;;;;;;;;;;6305633;22;20170;-76
2023/12/08 10:27:15;;;;;;;11.98;3.38;;;;;;;;;;6305953;22;20209;-77
2023/12/08 10:29:42;;;;;;;11.20;3.42;;;;;;;;;;6305595;22;20553;-77
2023/12/08 10:32:09;;;;;;;11.70;3.22;;;;;;;;;;6305953;22;20165;-76
2023/12/08 10:34:39;;;;;;;10.32;3.47;;;;;;;;;;6305402;22;20751;-76
2023/12/08 10:37:07;;;;;;;12.85;3.13;;;;;;;;;;6305899;22;20193;-76
2023/12/08 10:39:34;;;;;;;9.32;2.70;;;;;;;;;;6305866;22;20166;-76
2023/12/08 10:42:01;;;;;;;9.60;2.63;;;;;;;;;;6305796;22;20170;-75
2023/12/08 10:44:30;;;;;;;11.15;2.80;;;;;;;;;;6305450;22;20703;-76
2023/12/08 10:46:58;;;;;;;12.75;3.58;;;;;;;;;;6305987;22;20170;-76
2023/12/08 10:49:25;;;;;;;14.40;3.45;;;;;;;;;;6305422;22;20707;-75
2023/12/08 10:51:53;;;;;;;10.07;2.90;;;;;;;;;;6306012;22;20220;-76
2023/12/08 10:54:21;;;;;;;10.82;3.35;;;;;;;;;;6305690;22;20204;-76
2023/12/08 10:56:49;;;;;;;8.38;3.15;;;;;;;;;;6305782;22;20177;-75
2023/12/08 10:59:19;;;;;;;10.75;3.13;;;;;;;;;;6304952;22;20197;-76
2023/12/08 11:01:48;;;;;;;12.07;3.58;;;;;;;;;;6305616;22;20170;-76
2023/12/08 11:04:16;;;;;;;11.50;3.15;;;;;;;;;;6305357;22;20170;-77
2023/12/08 11:06:46;;;;;;;9.52;3.20;;;;;;;;;;6305563;22;20201;-77
2023/12/08 11:09:15;;;;;;;13.00;3.72;;;;;;;;;;6306314;22;20228;-77
2023/12/08 11:11:50;;;;;;;10.88;3.13;;;;;;;;;;6305719;22;20223;-77
2023/12/08 11:14:24;;;;;;;12.57;3.72;;;;;;;;;;6305595;22;20172;-76
2023/12/08 11:16:57;;;;;;;12.65;3.92;;;;;;;;;;6305752;22;20545;-75
2023/12/08 11:19:25;;;;;;;12.88;3.53;;;;;;;;;;6305810;22;20197;-76
2023/12/08 11:21:52;;;;;;;12.73;3.80;;;;;;;;;;6305480;22;20176;-76
2023/12/08 11:24:20;;;;;;;10.75;3.60;;;;;;;;;;6305077;22;20169;-75
2023/12/08 11:26:53;;;;;;;10.57;3.35;;;;;;;;;;6305218;22;20720;-76
2023/12/08 11:29:25;;;;;;;11.77;3.85;;;;;;;;;;6304615;22;20215;-77
2023/12/08 11:31:56;;;;;;;11.20;3.40;;;;;;;;;;6304864;22;20205;-76
2023/12/08 11:34:25;;;;;;;15.02;3.90;;;;;;;;;;6305614;22;20725;-77
2023/12/08 11:36:53;;;;;;;9.48;3.58;;;;;;;;;;6305520;22;20699;-75
2023/12/08 11:39:44;;;;;;;12.55;3.80;;;;;;;;;;6305615;22;20248;-76
2023/12/08 11:42:11;;;;;;;13.70;4.47;;;;;;;;;;6282047;22;20170;-76
2023/12/08 11:44:40;;;;;;;10.70;4.43;;;;;;;;;;6305244;22;20647;-77
2023/12/08 11:47:09;;;;;;;13.85;3.45;;;;;;;;;;6305968;22;20197;-76
2023/12/08 11:49:37;;;;;;;11.15;4.03;;;;;;;;;;6304899;22;20253;-77
2023/12/08 11:52:13;;;;;;;11.50;3.45;;;;;;;;;;6305070;22;20173;-77
2023/12/08 11:55:00;;;;;;;14.63;3.50;;;;;;;;;;6304842;22;20181;-77
2023/12/08 11:57:28;;;;;;;10.15;2.67;;;;;;;;;;6305493;22;20249;-75
2023/12/08 11:59:55;;;;;;;18.67;3.13;;;;;;;;;;6305100;22;20200;-76
2023/12/08 12:02:24;;;;;;;15.60;3.22;;;;;;;;;;6305264;22;20249;-77
2023/12/08 12:04:52;;;;;;;9.32;2.38;;;;;;;;;;6305333;22;20202;-77
2023/12/08 12:07:19;;;;;;;10.95;2.70;;;;;;;;;;6305588;22;20253;-77
2023/12/08 12:09:48;;;;;;;11.98;2.45;;;;;;;;;;6304667;22;20202;-76
2023/12/08 12:12:20;;;;;;;16.40;3.03;;;;;;;;;;6304953;22;20166;-77
2023/12/08 12:14:49;;;;;;;12.23;2.92;;;;;;;;;;6305087;22;20535;-77
2023/12/08 12:17:16;;;;;;;16.33;2.97;;;;;;;;;;6306356;22;20201;-77
2023/12/08 12:19:45;;;;;;;12.95;2.45;;;;;;;;;;6307195;22;20193;-76
2023/12/08 12:22:12;;;;;;;15.70;3.55;;;;;;;;;;6307851;22;20166;-76
2023/12/08 12:24:39;;;;;;;9.95;2.35;;;;;;;;;;6306885;22;20198;-76
2023/12/08 12:27:06;;;;;;;20.00;3.58;;;;;;;;;;6306748;22;20204;-76
2023/12/08 12:29:34;;;;;;;16.58;3.33;;;;;;;;;;6307019;22;20252;-76
2023/12/08 12:32:03;;;;;;;15.20;3.45;;;;;;;;;;6307066;22;20173;-76
2023/12/08 12:34:30;;;;;;;11.35;2.75;;;;;;;;;;6307313;22;20548;-76
2023/12/08 12:36:59;;;;;;;16.95;3.03;;;;;;;;;;6306971;22;20288;-78
2023/12/08 12:39:26;;;;;;;11.95;3.22;;;;;;;;;;6306476;22;20170;-76
2023/12/08 12:41:58;;;;;;;17.90;3.28;;;;;;;;;;6306991;22;20193;-76
2023/12/08 12:44:25;;;;;;;18.08;2.90;;;;;;;;;;6306857;22;20177;-76
2023/12/08 12:46:53;;;;;;;15.90;3.22;;;;;;;;;;6306827;22;20174;-76
2023/12/08 12:49:20;;;;;;;14.30;3.15;;;;;;;;;;6306773;22;20507;-76
2023/12/08 12:51:47;;;;;;;14.65;3.65;;;;;;;;;;6306555;22;20662;-77
2023/12/08 12:54:16;;;;;;;17.33;3.70;;;;;;;;;;6306715;22;20644;-77
2023/12/08 12:56:51;;;;;;;18.88;3.95;;;;;;;;;;6306547;22;20229;-77
2023/12/08 12:59:19;;;;;;;15.48;3.28;;;;;;;;;;6307013;22;20197;-76
2023/12/08 13:01:48;;;;;;;17.98;3.83;;;;;;;;;;6306908;22;20227;-77
2023/12/08 13:04:16;;;;;;;16.02;3.95;;;;;;;;;;6306602;22;20169;-76
2023/12/08 13:06:43;;;;;;;13.55;3.42;;;;;;;;;;6306518;22;20256;-77
2023/12/08 13:09:10;;;;;;;15.80;3.53;;;;;;;;;;6306336;22;20224;-77
2023/12/08 13:11:38;;;;;;;15.05;3.38;;;;;;;;;;6306706;22;20178;-77
2023/12/08 13:14:06;;;;;;;18.50;3.38;;;;;;;;;;6306675;22;20202;-77
2023/12/08 13:16:34;;;;;;;22.10;3.47;;;;;;;;;;6306611;22;20284;-76
2023/12/08 13:19:01;;;;;;;15.48;3.15;;;;;;;;;;6306944;22;20227;-77
2023/12/08 13:21:28;;;;;;;15.57;3.10;;;;;;;;;;6306460;22;20201;-77
2023/12/08 13:23:55;;;;;;;18.63;3.90;;;;;;;;;;6306565;22;20190;-77
2023/12/08 13:26:22;;;;;;;13.85;3.17;;;;;;;;;;6306678;22;20200;-76
2023/12/08 13:28:51;;;;;;;16.35;3.95;;;;;;;;;;6306158;22;20194;-77
2023/12/08 13:31:18;;;;;;;12.80;3.80;;;;;;;;;;6306921;22;20181;-76
2023/12/08 13:33:45;;;;;;;13.60;3.53;;;;;;;;;;6306422;22;20249;-77
2023/12/08 13:36:13;;;;;;;15.88;4.22;;;;;;;;;;6306476;22;20228;-77
2023/12/08 13:38:40;;;;;;;15.57;3.55;;;;;;;;;;6306577;22;20531;-76
2023/12/08 13:41:07;;;;;;;16.35;3.20;;;;;;;;;;6305958;22;20545;-76
2023/12/08 13:43:34;;;;;;;14.27;3.83;;;;;;;;;;6306097;22;20253;-76
2023/12/08 13:46:03;;;;;;;14.98;2.92;;;;;;;;;;6306028;22;20203;-77
2023/12/08 13:48:30;;;;;;;17.75;3.35;;;;;;;;;;6306265;22;20252;-77
2023/12/08 13:50:57;;;;;;;14.68;3.15;;;;;;;;;;6306253;22;20249;-77
2023/12/08 13:53:23;;;;;;;13.48;3.60;;;;;;;;;;6305812;22;20251;-77
2023/12/08 13:55:51;;;;;;;15.90;3.38;;;;;;;;;;6306098;22;20201;-77
2023/12/08 13:58:18;;;;;;;19.30;3.72;;;;;;;;;;6306687;22;20193;-77
2023/12/08 14:00:45;;;;;;;15.90;4.25;;;;;;;;;;6305583;22;20240;-77
2023/12/08 14:03:13;;;;;;;14.50;4.50;;;;;;;;;;6306335;22;20210;-77
2023/12/08 14:05:40;;;;;;;13.95;3.42;;;;;;;;;;6305986;22;20260;-77
2023/12/08 14:08:09;;;;;;;13.73;3.58;;;;;;;;;;6305470;22;20165;-78
2023/12/08 14:10:36;;;;;;;16.58;3.58;;;;;;;;;;6305794;22;20173;-77
2023/12/08 14:13:04;;;;;;;20.13;4.00;;;;;;;;;;6306003;22;20636;-77
2023/12/08 14:15:32;;;;;;;11.50;3.13;;;;;;;;;;6306020;22;20656;-77
2023/12/08 14:17:59;;;;;;;13.48;4.00;;;;;;;;;;6305482;22;20580;-76
2023/12/08 14:20:28;;;;;;;15.15;3.70;;;;;;;;;;6305744;22;20208;-77
2023/12/08 14:22:55;;;;;;;12.98;3.03;;;;;;;;;;6305857;22;20544;-77
2023/12/08 14:25:22;;;;;;;19.08;3.83;;;;;;;;;;6306253;22;20181;-78
2023/12/08 14:27:49;;;;;;;17.30;3.33;;;;;;;;;;6306106;22;20215;-78